Time;durP1;ratioP1;P1;durP2;ratioP2;P2;SDS_P1;SDS_P2;PMS_P1;PMS_P2;Temp;Humidity;BMP_temperature;BMP_pressure;BME280_temperature;BME280_humidity;BME280_pressure;Samples;Min_cycle;Max_cycle;Signal;HPM_P1;HPM_P2
2021/07/30 00:00:24;;;;;;;3.73;1.67;;;18.00;97.80;;;;;;5069315;28;20742;-73
2021/07/30 00:02:52;;;;;;;6.83;2.00;;;17.90;97.90;;;;;;5069410;28;20253;-73
2021/07/30 00:05:19;;;;;;;3.83;2.00;;;17.80;98.10;;;;;;5069282;28;20207;-73
2021/07/30 00:07:46;;;;;;;5.47;1.77;;;17.80;98.10;;;;;;5069271;28;20261;-71
2021/07/30 00:10:13;;;;;;;5.27;1.57;;;17.80;98.20;;;;;;5068805;28;20301;-72
2021/07/30 00:12:40;;;;;;;2.83;1.50;;;17.80;98.30;;;;;;5069149;28;20570;-72
2021/07/30 00:15:07;;;;;;;2.23;2.03;;;17.90;98.40;;;;;;5069141;28;20288;-72
2021/07/30 00:17:34;;;;;;;5.40;2.20;;;17.90;98.60;;;;;;5069114;28;20238;-71
2021/07/30 00:20:02;;;;;;;5.40;2.00;;;17.90;98.60;;;;;;5068669;28;20737;-72
2021/07/30 00:22:29;;;;;;;2.80;1.70;;;17.90;98.80;;;;;;5069093;28;20241;-72
2021/07/30 00:24:55;;;;;;;2.87;1.80;;;17.90;98.70;;;;;;5068916;28;20211;-71
2021/07/30 00:27:22;;;;;;;3.20;2.07;;;18.00;98.60;;;;;;5068729;28;20678;-72
2021/07/30 00:29:49;;;;;;;3.13;1.93;;;18.00;98.60;;;;;;5068723;28;20262;-71
2021/07/30 00:32:15;;;;;;;3.00;2.30;;;18.10;98.60;;;;;;5069019;28;20232;-71
2021/07/30 00:34:42;;;;;;;3.07;1.93;;;18.30;98.60;;;;;;5068996;28;20253;-71
2021/07/30 00:37:10;;;;;;;4.10;2.07;;;18.30;98.30;;;;;;5068533;28;20670;-71
2021/07/30 00:39:36;;;;;;;6.17;2.03;;;18.10;98.30;;;;;;5068863;28;20654;-71
2021/07/30 00:42:03;;;;;;;3.17;2.13;;;17.90;98.50;;;;;;5068878;28;20783;-71
2021/07/30 00:44:30;;;;;;;5.00;1.70;;;17.90;98.50;;;;;;5068607;28;20698;-71
2021/07/30 00:46:57;;;;;;;1.83;1.70;;;17.90;98.70;;;;;;5068414;28;20677;-71
2021/07/30 00:49:24;;;;;;;5.47;1.97;;;18.00;98.80;;;;;;5068889;28;20258;-72
2021/07/30 00:51:51;;;;;;;3.70;2.07;;;17.90;99.10;;;;;;5068571;28;20204;-72
2021/07/30 00:54:19;;;;;;;2.33;2.10;;;17.80;99.30;;;;;;5068680;28;20207;-71
2021/07/30 00:56:47;;;;;;;3.50;2.03;;;17.70;99.50;;;;;;5068594;28;20208;-72
2021/07/30 00:59:14;;;;;;;1.93;1.83;;;17.60;99.90;;;;;;5068537;28;20243;-71
2021/07/30 01:01:41;;;;;;;2.23;1.97;;;17.60;99.90;;;;;;5067788;28;20237;-71
2021/07/30 01:04:07;;;;;;;2.20;1.90;;;17.60;99.90;;;;;;5068566;28;20288;-71
2021/07/30 01:06:36;;;;;;;5.20;2.33;;;17.60;99.90;;;;;;5068512;28;20308;-72
2021/07/30 01:09:02;;;;;;;7.13;2.63;;;17.60;99.90;;;;;;5067791;28;20263;-71
2021/07/30 01:11:30;;;;;;;2.20;1.83;;;17.60;99.90;;;;;;5068235;28;20188;-71
2021/07/30 01:13:57;;;;;;;5.40;2.33;;;17.50;99.90;;;;;;5067988;28;20207;-71
2021/07/30 01:16:23;;;;;;;2.20;1.80;;;17.40;99.90;;;;;;5068157;28;20613;-71
2021/07/30 01:18:50;;;;;;;3.27;1.70;;;17.40;99.90;;;;;;5068444;28;20207;-71
2021/07/30 01:21:22;;;;;;;3.53;2.07;;;17.30;99.90;;;;;;5068422;28;20231;-71
2021/07/30 01:23:51;;;;;;;2.40;1.80;;;17.40;99.90;;;;;;5068382;28;20198;-71
2021/07/30 01:26:18;;;;;;;2.23;2.03;;;17.40;99.90;;;;;;5068653;28;20203;-71
2021/07/30 01:28:45;;;;;;;2.93;2.00;;;17.20;99.90;;;;;;5067891;28;20628;-71
2021/07/30 01:31:11;;;;;;;2.77;2.03;;;17.20;99.90;;;;;;5068198;28;20261;-71
2021/07/30 01:33:38;;;;;;;2.47;1.73;;;17.10;99.90;;;;;;5068238;28;20242;-71
2021/07/30 01:36:05;;;;;;;4.40;1.80;;;17.10;99.90;;;;;;5068244;28;20285;-71
2021/07/30 01:38:32;;;;;;;6.83;2.73;;;17.00;99.90;;;;;;5068202;28;20246;-70
2021/07/30 01:41:09;;;;;;;3.33;1.97;;;17.00;99.90;;;;;;5067931;28;20208;-70
2021/07/30 01:43:36;;;;;;;4.40;2.10;;;17.00;99.90;;;;;;5068016;28;20314;-70
2021/07/30 01:46:03;;;;;;;2.83;1.73;;;16.90;99.90;;;;;;5067638;28;20265;-70
2021/07/30 01:48:29;;;;;;;4.60;2.10;;;16.90;99.90;;;;;;5068042;28;20234;-71
2021/07/30 01:50:56;;;;;;;2.73;1.83;;;16.90;99.90;;;;;;5068056;28;20231;-70
2021/07/30 01:53:23;;;;;;;4.20;2.20;;;16.80;99.90;;;;;;5068253;28;20212;-70
2021/07/30 01:55:49;;;;;;;4.37;2.00;;;16.70;99.90;;;;;;5067975;28;20254;-70
2021/07/30 01:58:17;;;;;;;4.03;2.13;;;16.70;99.90;;;;;;5068363;28;20199;-70
2021/07/30 02:00:44;;;;;;;4.63;2.20;;;16.70;99.90;;;;;;5067797;28;20297;-70
2021/07/30 02:03:10;;;;;;;3.00;2.00;;;16.70;99.90;;;;;;5068016;28;20575;-70
2021/07/30 02:05:38;;;;;;;3.20;1.87;;;16.70;99.90;;;;;;5068175;28;20227;-70
2021/07/30 02:08:05;;;;;;;4.17;2.20;;;16.70;99.90;;;;;;5067807;28;20424;-70
2021/07/30 02:10:31;;;;;;;3.20;2.13;;;16.60;99.90;;;;;;5067571;28;20247;-70
2021/07/30 02:15:43;;;;;;;2.50;2.10;;;16.60;99.90;;;;;;5071506;28;20195;-70
2021/07/30 02:18:10;;;;;;;4.23;2.20;;;16.60;99.90;;;;;;5071516;28;20215;-70
2021/07/30 02:20:37;;;;;;;4.97;2.60;;;16.50;99.90;;;;;;5071619;28;20289;-70
2021/07/30 02:23:04;;;;;;;4.10;2.03;;;16.50;99.90;;;;;;5071556;28;20282;-70
2021/07/30 02:25:31;;;;;;;8.43;2.00;;;16.40;99.90;;;;;;5071298;28;20256;-70
2021/07/30 02:27:57;;;;;;;3.60;2.10;;;16.40;99.90;;;;;;5071371;28;20211;-70
2021/07/30 02:30:24;;;;;;;3.60;2.00;;;16.30;99.90;;;;;;5071240;28;20278;-70
2021/07/30 02:32:52;;;;;;;3.10;1.87;;;16.40;99.90;;;;;;5071331;28;20207;-70
2021/07/30 02:35:19;;;;;;;4.57;2.20;;;16.40;99.90;;;;;;5071019;28;20731;-70
2021/07/30 02:37:45;;;;;;;4.57;2.10;;;16.40;99.90;;;;;;5071287;28;20277;-71
2021/07/30 02:40:13;;;;;;;4.27;2.23;;;16.30;99.90;;;;;;5071255;28;20227;-71
2021/07/30 02:42:40;;;;;;;2.00;1.90;;;16.30;99.90;;;;;;5070936;28;20260;-71
2021/07/30 02:45:07;;;;;;;6.23;2.17;;;16.30;99.90;;;;;;5070512;28;20231;-70
2021/07/30 02:47:34;;;;;;;5.27;2.37;;;16.30;99.90;;;;;;5071048;28;20203;-70
2021/07/30 02:50:02;;;;;;;4.80;2.20;;;16.30;99.90;;;;;;5071039;28;20196;-70
2021/07/30 02:52:29;;;;;;;2.13;1.93;;;16.20;99.90;;;;;;5070398;28;20657;-70
2021/07/30 02:54:55;;;;;;;4.63;2.17;;;16.20;99.90;;;;;;5070756;28;20235;-70
2021/07/30 02:57:22;;;;;;;3.13;2.13;;;16.20;99.90;;;;;;5070906;28;20200;-71
2021/07/30 02:59:48;;;;;;;2.30;2.00;;;16.30;99.90;;;;;;5070689;28;20231;-71
2021/07/30 03:02:15;;;;;;;2.60;2.00;;;16.30;99.90;;;;;;5070861;28;20204;-71
2021/07/30 03:04:41;;;;;;;5.63;2.23;;;16.30;99.90;;;;;;5070833;28;20207;-71
2021/07/30 03:07:09;;;;;;;3.77;2.00;;;16.30;99.90;;;;;;5070350;28;20226;-71
2021/07/30 03:09:36;;;;;;;5.27;2.20;;;16.30;99.90;;;;;;5070251;28;20286;-71
2021/07/30 03:12:03;;;;;;;4.43;2.30;;;16.40;99.90;;;;;;5070252;28;20610;-71
2021/07/30 03:14:30;;;;;;;4.90;2.50;;;16.50;99.90;;;;;;5070197;28;20632;-71
2021/07/30 03:16:56;;;;;;;2.50;1.90;;;16.40;99.90;;;;;;5070341;28;20212;-71
2021/07/30 03:19:23;;;;;;;5.63;2.40;;;16.40;99.90;;;;;;5070447;28;20207;-70
2021/07/30 03:21:49;;;;;;;3.00;2.10;;;16.40;99.90;;;;;;5070427;28;20211;-70
2021/07/30 03:24:17;;;;;;;3.07;1.87;;;16.40;99.90;;;;;;5070082;28;20220;-70
2021/07/30 03:26:44;;;;;;;4.73;2.10;;;16.30;99.90;;;;;;5070421;28;20207;-70
2021/07/30 03:29:10;;;;;;;4.47;2.00;;;16.30;99.90;;;;;;5070240;28;20308;-69
2021/07/30 03:31:37;;;;;;;2.40;2.20;;;16.20;99.90;;;;;;5069931;28;20239;-69
2021/07/30 03:34:04;;;;;;;2.67;2.10;;;16.30;99.90;;;;;;5070201;28;20261;-70
2021/07/30 03:36:30;;;;;;;2.50;2.27;;;16.30;99.90;;;;;;5070161;28;20344;-71
2021/07/30 03:38:57;;;;;;;5.00;2.10;;;16.20;99.90;;;;;;5070027;28;20257;-70
2021/07/30 03:41:25;;;;;;;2.30;2.10;;;16.20;99.90;;;;;;5069911;28;20262;-70
2021/07/30 03:43:51;;;;;;;3.13;1.83;;;16.10;99.90;;;;;;5070021;28;20281;-70
2021/07/30 03:46:18;;;;;;;3.43;2.30;;;16.10;99.90;;;;;;5069799;28;20211;-70
2021/07/30 03:48:45;;;;;;;2.10;2.00;;;16.10;99.90;;;;;;5069673;28;20681;-70
2021/07/30 03:51:11;;;;;;;4.63;1.73;;;16.20;99.90;;;;;;5069771;28;20212;-71
2021/07/30 03:53:38;;;;;;;6.70;2.40;;;16.30;99.90;;;;;;5069612;28;20253;-71
2021/07/30 03:56:13;;;;;;;4.00;2.10;;;16.20;99.90;;;;;;5069637;28;20218;-70
2021/07/30 03:58:41;;;;;;;2.53;2.10;;;16.30;99.90;;;;;;5069612;28;20537;-70
2021/07/30 04:01:08;;;;;;;2.70;2.00;;;16.40;99.90;;;;;;5069335;28;20228;-70
2021/07/30 04:03:35;;;;;;;3.23;2.17;;;16.30;99.90;;;;;;5069627;28;20207;-71
2021/07/30 04:06:02;;;;;;;2.90;1.80;;;16.20;99.90;;;;;;5069157;28;20219;-71
2021/07/30 04:08:28;;;;;;;4.80;2.27;;;16.30;99.90;;;;;;5069437;28;20230;-71
2021/07/30 04:10:55;;;;;;;3.77;2.20;;;16.30;99.90;;;;;;5068792;28;20263;-72
2021/07/30 04:13:22;;;;;;;2.83;2.23;;;16.30;99.90;;;;;;5069730;28;20203;-70
2021/07/30 04:15:50;;;;;;;6.87;2.03;;;16.40;99.90;;;;;;5069437;28;20634;-70
2021/07/30 04:18:16;;;;;;;3.80;2.03;;;16.40;99.90;;;;;;5069130;28;20230;-70
2021/07/30 04:20:43;;;;;;;2.50;2.30;;;16.40;99.90;;;;;;5069255;28;20379;-70
2021/07/30 04:23:10;;;;;;;3.37;2.13;;;16.30;99.90;;;;;;5068748;28;20778;-72
2021/07/30 04:25:41;;;;;;;3.37;2.27;;;16.10;99.90;;;;;;5069169;28;20207;-72
2021/07/30 04:28:07;;;;;;;3.47;2.23;;;16.00;99.90;;;;;;5069127;28;20218;-72
2021/07/30 04:30:34;;;;;;;5.10;2.17;;;16.00;99.90;;;;;;5068947;28;20264;-70
2021/07/30 04:33:02;;;;;;;4.40;2.37;;;16.00;99.90;;;;;;5068906;28;20651;-70
2021/07/30 04:35:31;;;;;;;2.33;2.13;;;16.10;99.90;;;;;;5069099;28;20257;-70
2021/07/30 04:37:58;;;;;;;3.30;2.20;;;16.00;99.90;;;;;;5068081;28;20252;-70
2021/07/30 04:40:24;;;;;;;2.70;2.30;;;16.00;99.90;;;;;;5068900;28;20231;-70
2021/07/30 04:42:51;;;;;;;4.47;2.73;;;16.00;99.90;;;;;;5068674;28;20285;-70
2021/07/30 04:45:18;;;;;;;3.57;2.10;;;15.90;99.90;;;;;;5068732;28;20258;-70
2021/07/30 04:47:44;;;;;;;2.63;2.23;;;15.90;99.90;;;;;;5068910;28;20203;-70
2021/07/30 04:50:12;;;;;;;3.07;2.13;;;16.00;99.90;;;;;;5068793;28;20265;-70
2021/07/30 04:52:39;;;;;;;2.40;2.20;;;16.00;99.90;;;;;;5068888;28;20242;-70
2021/07/30 04:55:06;;;;;;;2.37;2.13;;;16.00;99.90;;;;;;5068542;28;20212;-70
2021/07/30 04:57:33;;;;;;;2.30;2.20;;;16.00;99.90;;;;;;5068434;28;20623;-70
2021/07/30 05:00:00;;;;;;;6.17;2.83;;;16.10;99.90;;;;;;5068287;28;20291;-70
2021/07/30 05:02:27;;;;;;;4.73;2.40;;;16.10;99.90;;;;;;5068566;28;20207;-70
2021/07/30 05:04:54;;;;;;;3.57;2.30;;;16.10;99.90;;;;;;5068323;28;20223;-71
2021/07/30 05:07:22;;;;;;;2.50;2.30;;;16.20;99.90;;;;;;5068573;28;20227;-70
2021/07/30 05:09:49;;;;;;;2.90;2.23;;;16.30;99.90;;;;;;5068171;28;20239;-70
2021/07/30 05:12:16;;;;;;;2.83;2.63;;;16.40;99.90;;;;;;5068061;28;20243;-69
2021/07/30 05:14:42;;;;;;;4.40;2.17;;;16.30;99.90;;;;;;5068518;28;20292;-71
2021/07/30 05:17:09;;;;;;;4.43;2.50;;;16.40;99.90;;;;;;5068388;28;20269;-71
2021/07/30 05:19:36;;;;;;;3.43;2.43;;;16.30;99.90;;;;;;5068408;28;20696;-71
2021/07/30 05:22:02;;;;;;;3.33;2.40;;;16.40;99.90;;;;;;5067953;28;20682;-71
2021/07/30 05:24:30;;;;;;;4.53;2.27;;;16.40;99.90;;;;;;5068413;28;20235;-71
2021/07/30 05:26:57;;;;;;;2.37;2.10;;;16.50;99.90;;;;;;5068375;28;20215;-71
2021/07/30 05:29:24;;;;;;;3.87;2.60;;;16.50;99.90;;;;;;5068379;28;20256;-71
2021/07/30 05:31:50;;;;;;;2.67;2.13;;;16.50;99.90;;;;;;5068172;28;20235;-71
2021/07/30 05:34:17;;;;;;;3.07;2.47;;;16.60;99.90;;;;;;5068317;28;20208;-71
2021/07/30 05:36:43;;;;;;;4.40;2.30;;;16.70;99.90;;;;;;5068151;28;20212;-71
2021/07/30 05:39:10;;;;;;;3.57;2.17;;;16.70;99.90;;;;;;5068295;28;20249;-71
2021/07/30 05:41:38;;;;;;;3.27;2.00;;;16.80;99.90;;;;;;5068002;28;20267;-71
2021/07/30 05:44:05;;;;;;;6.33;2.60;;;16.80;99.90;;;;;;5068394;28;20293;-71
2021/07/30 05:46:31;;;;;;;3.60;2.60;;;16.80;99.90;;;;;;5068346;28;20714;-71
2021/07/30 05:49:00;;;;;;;5.70;2.80;;;17.00;99.90;;;;;;5070770;28;20272;-71
2021/07/30 05:51:26;;;;;;;4.33;2.27;;;17.00;99.90;;;;;;5072090;28;20666;-71
2021/07/30 05:53:53;;;;;;;5.30;2.40;;;17.00;99.90;;;;;;5072248;28;20280;-71
2021/07/30 05:56:19;;;;;;;5.00;2.60;;;17.10;99.90;;;;;;5072228;28;20265;-72
2021/07/30 05:58:47;;;;;;;5.23;3.00;;;17.20;99.90;;;;;;5071896;28;20199;-72
2021/07/30 06:01:14;;;;;;;4.40;2.40;;;17.30;99.90;;;;;;5071851;28;20304;-72
2021/07/30 06:03:41;;;;;;;4.07;2.87;;;17.30;99.90;;;;;;5071805;28;20540;-73
2021/07/30 06:06:08;;;;;;;5.03;2.67;;;17.40;99.90;;;;;;5071481;28;20301;-70
2021/07/30 06:08:35;;;;;;;2.93;2.70;;;17.40;99.90;;;;;;5071528;28;20220;-71
2021/07/30 06:11:03;;;;;;;4.60;3.00;;;17.40;99.90;;;;;;5071397;28;20242;-71
2021/07/30 06:13:30;;;;;;;2.87;2.60;;;17.50;99.90;;;;;;5071668;28;20207;-71
2021/07/30 06:15:58;;;;;;;2.70;2.43;;;17.50;99.90;;;;;;5071362;28;20207;-71
2021/07/30 06:18:24;;;;;;;3.77;2.60;;;17.60;99.90;;;;;;5071352;28;20315;-71
2021/07/30 06:20:51;;;;;;;5.57;2.83;;;17.60;99.90;;;;;;5071448;28;20258;-71
2021/07/30 06:23:18;;;;;;;8.07;2.67;;;17.70;99.90;;;;;;5071434;28;20207;-70
2021/07/30 06:25:44;;;;;;;5.77;3.07;;;17.70;99.90;;;;;;5071591;28;20204;-70
2021/07/30 06:28:11;;;;;;;5.70;3.13;;;17.70;99.90;;;;;;5071354;28;20204;-70
2021/07/30 06:30:38;;;;;;;7.37;2.90;;;17.80;99.90;;;;;;5071210;28;20494;-71
2021/07/30 06:33:10;;;;;;;6.73;2.70;;;17.80;99.90;;;;;;5071240;28;20199;-70
2021/07/30 06:35:36;;;;;;;5.27;2.80;;;17.80;99.90;;;;;;5071338;28;20196;-70
2021/07/30 06:38:03;;;;;;;4.83;2.80;;;17.90;99.90;;;;;;5071255;28;21101;-71
2021/07/30 06:40:30;;;;;;;3.67;2.70;;;18.00;99.90;;;;;;5071152;28;20245;-71
2021/07/30 06:42:57;;;;;;;3.40;2.47;;;18.00;99.90;;;;;;5071259;28;20342;-70
2021/07/30 06:45:24;;;;;;;4.73;2.30;;;18.10;99.90;;;;;;5070991;28;20298;-70
2021/07/30 06:47:50;;;;;;;3.83;2.60;;;18.20;99.90;;;;;;5071399;28;20257;-70
2021/07/30 06:50:18;;;;;;;3.97;2.70;;;18.20;99.90;;;;;;5070853;28;20208;-70
2021/07/30 06:52:45;;;;;;;3.13;2.67;;;18.20;99.90;;;;;;5071009;28;20207;-70
2021/07/30 06:55:12;;;;;;;5.03;2.60;;;18.30;99.90;;;;;;5070816;28;20203;-70
2021/07/30 06:57:38;;;;;;;7.57;2.80;;;18.30;99.90;;;;;;5070502;28;20689;-71
2021/07/30 07:00:06;;;;;;;5.73;2.50;;;18.30;99.90;;;;;;5068115;28;20200;-70
2021/07/30 07:02:33;;;;;;;5.67;3.13;;;18.40;99.90;;;;;;5066044;28;20634;-70
2021/07/30 07:04:59;;;;;;;3.60;2.67;;;18.50;99.90;;;;;;5070254;28;20223;-70
2021/07/30 07:07:27;;;;;;;4.83;2.90;;;18.50;99.90;;;;;;5070401;28;20215;-70
2021/07/30 07:09:54;;;;;;;5.23;2.60;;;18.60;99.90;;;;;;5069887;28;20424;-71
2021/07/30 07:12:21;;;;;;;3.90;2.47;;;18.60;99.90;;;;;;5070147;28;20235;-71
2021/07/30 07:14:47;;;;;;;5.03;2.70;;;18.70;99.90;;;;;;5070145;28;20199;-72
2021/07/30 07:17:15;;;;;;;5.40;2.93;;;18.70;99.90;;;;;;5069715;28;20195;-72
2021/07/30 07:19:42;;;;;;;6.77;2.80;;;18.80;99.90;;;;;;5070159;28;20238;-71
2021/07/30 07:22:08;;;;;;;3.47;2.47;;;18.90;99.90;;;;;;5069628;28;20658;-70
2021/07/30 07:24:38;;;;;;;5.73;2.93;;;19.00;99.90;;;;;;5070217;28;20726;-70
2021/07/30 07:27:05;;;;;;;4.53;2.57;;;19.00;99.90;;;;;;5070009;28;20208;-71
2021/07/30 07:29:32;;;;;;;4.37;2.57;;;19.10;99.90;;;;;;5070200;28;20199;-70
2021/07/30 07:31:59;;;;;;;7.13;3.00;;;19.20;99.90;;;;;;5069481;28;20284;-72
2021/07/30 07:34:26;;;;;;;6.70;3.17;;;19.30;99.90;;;;;;5069196;28;20678;-71
2021/07/30 07:36:53;;;;;;;6.03;3.07;;;19.30;99.90;;;;;;5069368;28;20725;-71
2021/07/30 07:39:20;;;;;;;4.50;2.73;;;19.30;99.90;;;;;;5069272;28;20237;-71
2021/07/30 07:41:48;;;;;;;6.43;3.03;;;19.40;99.90;;;;;;5055223;28;20246;-71
2021/07/30 07:44:16;;;;;;;4.37;2.63;;;19.50;99.90;;;;;;5047397;28;20570;-71
2021/07/30 07:46:42;;;;;;;4.63;2.83;;;19.60;99.90;;;;;;5046998;28;20222;-71
2021/07/30 07:49:09;;;;;;;5.30;3.03;;;19.60;99.90;;;;;;5046578;28;20215;-71
2021/07/30 07:51:36;;;;;;;4.97;2.60;;;19.60;99.90;;;;;;5063644;28;20755;-71
2021/07/30 07:54:03;;;;;;;4.43;3.00;;;19.60;99.90;;;;;;5065046;28;20506;-74
2021/07/30 07:56:30;;;;;;;5.43;2.93;;;19.60;99.90;;;;;;5065595;28;20701;-74
2021/07/30 07:58:58;;;;;;;6.93;3.50;;;19.80;99.90;;;;;;5066103;28;20737;-75
2021/07/30 08:01:25;;;;;;;6.30;3.00;;;19.90;99.90;;;;;;5066017;28;20231;-74
2021/07/30 08:03:51;;;;;;;3.40;3.03;;;19.90;99.70;;;;;;5066928;28;20600;-74
2021/07/30 08:06:19;;;;;;;4.57;2.77;;;19.90;99.40;;;;;;5066587;28;20215;-74
2021/07/30 08:08:45;;;;;;;8.17;3.13;;;20.00;99.40;;;;;;5065702;28;20228;-73
2021/07/30 08:11:12;;;;;;;7.27;3.53;;;20.00;98.50;;;;;;5065670;28;20288;-73
2021/07/30 08:13:39;;;;;;;4.93;2.87;;;20.00;98.90;;;;;;5065957;28;20253;-74
2021/07/30 08:16:07;;;;;;;4.87;3.30;;;20.10;99.40;;;;;;5055977;28;20227;-73
2021/07/30 08:18:34;;;;;;;4.20;3.30;;;20.20;98.10;;;;;;5065723;28;20280;-74
2021/07/30 08:21:01;;;;;;;6.33;3.33;;;20.30;98.10;;;;;;5065662;28;20265;-76
2021/07/30 08:23:28;;;;;;;6.47;3.10;;;20.40;98.20;;;;;;5065914;28;20677;-74
2021/07/30 08:25:55;;;;;;;7.40;3.10;;;20.40;97.60;;;;;;5066312;28;20296;-73
2021/07/30 08:28:21;;;;;;;4.03;3.17;;;20.40;97.70;;;;;;5065769;28;20489;-74
2021/07/30 08:30:48;;;;;;;9.03;3.40;;;20.40;97.20;;;;;;5065925;28;20216;-72
2021/07/30 08:33:16;;;;;;;7.43;3.10;;;20.50;97.80;;;;;;5065782;28;20207;-73
2021/07/30 08:35:43;;;;;;;7.40;3.37;;;20.60;97.30;;;;;;5065520;28;20207;-74
2021/07/30 08:38:10;;;;;;;8.37;3.73;;;20.70;97.50;;;;;;5065639;28;20206;-73
2021/07/30 08:40:40;;;;;;;5.77;5.03;;;20.70;97.20;;;;;;5065689;28;20684;-77
2021/07/30 08:43:06;;;;;;;10.10;6.17;;;20.80;97.10;;;;;;5064859;28;21018;-74
2021/07/30 08:45:33;;;;;;;7.37;3.53;;;20.80;97.10;;;;;;5065173;28;20790;-74
2021/07/30 08:48:01;;;;;;;3.80;2.80;;;20.80;96.10;;;;;;5065698;28;20265;-75
2021/07/30 08:50:31;;;;;;;9.67;2.80;;;21.00;96.60;;;;;;5065508;28;20203;-74
2021/07/30 08:53:03;;;;;;;7.03;2.90;;;21.00;95.80;;;;;;5065826;28;20759;-74
2021/07/30 08:55:30;;;;;;;4.87;2.80;;;21.10;96.20;;;;;;5065844;28;20231;-74
2021/07/30 08:57:57;;;;;;;6.27;2.90;;;21.10;95.40;;;;;;5065269;28;20207;-74
2021/07/30 09:00:24;;;;;;;5.13;2.90;;;21.10;95.60;;;;;;5061542;28;20200;-71
2021/07/30 09:02:51;;;;;;;6.37;3.20;;;21.10;95.60;;;;;;5052479;28;20693;-71
2021/07/30 09:05:29;;;;;;;6.47;3.10;;;21.10;95.90;;;;;;5065872;28;20258;-71
2021/07/30 09:07:56;;;;;;;4.37;3.00;;;21.30;95.50;;;;;;5066105;28;20273;-71
2021/07/30 09:10:28;;;;;;;4.53;2.70;;;21.40;95.40;;;;;;5066194;28;20278;-71
2021/07/30 09:13:23;;;;;;;5.73;3.13;;;21.50;96.00;;;;;;5067104;28;20200;-72
2021/07/30 09:15:59;;;;;;;7.33;3.20;;;21.60;95.40;;;;;;5067146;28;20199;-71
2021/07/30 09:18:32;;;;;;;5.97;2.97;;;21.70;94.60;;;;;;5068172;28;20598;-71
2021/07/30 09:21:28;;;;;;;4.40;2.97;;;21.70;94.10;;;;;;5068069;28;20260;-71
2021/07/30 09:23:57;;;;;;;2.97;2.67;;;21.70;93.60;;;;;;5067907;28;20192;-71
2021/07/30 09:26:33;;;;;;;5.13;2.60;;;21.70;93.90;;;;;;5068253;28;20207;-71
2021/07/30 09:29:01;;;;;;;5.13;3.07;;;21.70;94.20;;;;;;5068688;28;20207;-72
2021/07/30 09:31:36;;;;;;;6.30;2.83;;;21.80;94.00;;;;;;5068133;28;20261;-71
2021/07/30 09:34:20;;;;;;;6.67;2.73;;;21.80;93.80;;;;;;5067968;28;20191;-72
2021/07/30 09:36:51;;;;;;;2.70;2.50;;;21.90;93.60;;;;;;5068340;28;20188;-71
2021/07/30 09:39:19;;;;;;;4.30;2.53;;;22.00;93.80;;;;;;5068311;28;20229;-71
2021/07/30 09:42:00;;;;;;;3.97;2.80;;;22.10;94.40;;;;;;5068362;28;20267;-71
2021/07/30 09:44:26;;;;;;;3.07;2.60;;;22.30;94.00;;;;;;5067996;28;20238;-71
2021/07/30 09:47:08;;;;;;;6.50;2.77;;;22.40;93.70;;;;;;5068183;28;20212;-71
2021/07/30 09:49:46;;;;;;;3.57;2.53;;;22.40;93.70;;;;;;5068270;28;20188;-71
2021/07/30 09:52:16;;;;;;;5.30;3.17;;;22.40;94.50;;;;;;5067998;28;20199;-72
2021/07/30 09:54:53;;;;;;;5.05;2.92;;;22.50;94.40;;;;;;5068081;28;20261;-71
2021/07/30 09:57:21;;;;;;;4.57;2.67;;;22.60;93.90;;;;;;5067780;28;20191;-72
2021/07/30 09:59:49;;;;;;;7.18;4.20;;;22.60;92.90;;;;;;5067970;28;20212;-71
2021/07/30 10:02:18;;;;;;;7.35;3.90;;;22.50;93.40;;;;;;5067641;28;20230;-71
2021/07/30 10:04:47;;;;;;;3.25;2.70;;;22.50;92.90;;;;;;5067547;28;20233;-72
2021/07/30 10:07:17;;;;;;;3.53;2.30;;;22.40;93.00;;;;;;5067563;28;20281;-71
2021/07/30 10:09:52;;;;;;;2.90;2.60;;;22.30;93.30;;;;;;5067516;28;20231;-72
2021/07/30 10:12:20;;;;;;;5.87;2.60;;;22.40;93.60;;;;;;5067632;28;20195;-72
2021/07/30 10:14:48;;;;;;;2.67;2.28;;;22.40;93.50;;;;;;5067540;28;20222;-72
2021/07/30 10:17:16;;;;;;;5.28;2.85;;;22.50;93.10;;;;;;5067215;28;20685;-72
2021/07/30 10:19:45;;;;;;;5.82;2.60;;;22.60;92.90;;;;;;5067437;28;20223;-72
2021/07/30 10:22:15;;;;;;;4.82;2.75;;;22.60;92.70;;;;;;5067313;28;20228;-72
2021/07/30 10:24:53;;;;;;;7.55;3.45;;;22.70;93.00;;;;;;5067243;28;20257;-72
2021/07/30 10:27:23;;;;;;;5.35;2.20;;;22.80;92.80;;;;;;5065801;28;20738;-72
2021/07/30 10:30:11;;;;;;;3.83;2.50;;;22.90;92.50;;;;;;5067023;28;20229;-72
2021/07/30 10:32:58;;;;;;;2.72;2.13;;;22.70;92.80;;;;;;5061651;28;20261;-72
2021/07/30 10:35:45;;;;;;;4.93;2.75;;;22.70;93.00;;;;;;5059869;28;20250;-76
2021/07/30 10:38:18;;;;;;;4.43;2.45;;;22.70;92.90;;;;;;5066266;28;20201;-75
2021/07/30 10:41:01;;;;;;;4.40;2.60;;;22.80;93.00;;;;;;5066780;28;20191;-72
2021/07/30 10:43:28;;;;;;;3.60;2.60;;;22.90;92.30;;;;;;5065855;28;20235;-72
2021/07/30 10:46:12;;;;;;;5.88;2.70;;;22.90;93.00;;;;;;5066121;28;20676;-72
2021/07/30 10:48:40;;;;;;;4.13;2.78;;;23.10;92.40;;;;;;5064675;28;21029;-72
2021/07/30 10:51:27;;;;;;;5.93;2.63;;;23.20;92.50;;;;;;5067267;28;20199;-72
2021/07/30 10:53:56;;;;;;;2.55;2.35;;;23.30;92.90;;;;;;5066276;28;20210;-72
2021/07/30 10:56:48;;;;;;;5.10;2.50;;;23.60;92.00;;;;;;5066965;28;20207;-73
2021/07/30 10:59:15;;;;;;;3.45;2.45;;;23.60;91.40;;;;;;5066947;28;20261;-72
2021/07/30 11:01:56;;;;;;;3.13;2.40;;;23.50;91.30;;;;;;5066734;28;20670;-72
2021/07/30 11:04:23;;;;;;;4.43;2.28;;;23.30;91.40;;;;;;5066809;28;20227;-75
2021/07/30 11:06:55;;;;;;;6.33;2.90;;;23.10;91.20;;;;;;5067048;28;20635;-75
2021/07/30 11:09:37;;;;;;;3.93;2.37;;;23.10;91.80;;;;;;5066435;28;20308;-75
2021/07/30 11:12:07;;;;;;;5.20;2.73;;;23.30;91.50;;;;;;5067329;28;20198;-72
2021/07/30 11:14:35;;;;;;;2.45;2.22;;;23.50;92.40;;;;;;5067029;28;20598;-72
2021/07/30 11:17:04;;;;;;;4.82;2.28;;;23.70;91.70;;;;;;5066796;28;20203;-73
2021/07/30 11:19:32;;;;;;;3.45;2.38;;;23.80;91.00;;;;;;5066504;28;20666;-72
2021/07/30 11:22:01;;;;;;;5.93;3.03;;;23.90;91.50;;;;;;5066243;28;20280;-72
2021/07/30 11:24:29;;;;;;;3.75;2.20;;;24.10;90.90;;;;;;5066207;28;20196;-69
2021/07/30 11:26:57;;;;;;;3.42;2.40;;;24.10;91.20;;;;;;5066591;28;20207;-70
2021/07/30 11:29:26;;;;;;;4.57;2.25;;;24.30;91.20;;;;;;5066980;28;20678;-69
2021/07/30 11:31:55;;;;;;;4.95;2.35;;;24.40;91.00;;;;;;5069923;28;20207;-69
2021/07/30 11:34:27;;;;;;;2.80;2.60;;;24.60;91.00;;;;;;5069910;28;20260;-70
2021/07/30 11:36:53;;;;;;;4.57;2.50;;;24.50;90.60;;;;;;5070159;28;20187;-70
2021/07/30 11:39:20;;;;;;;9.85;4.45;;;24.30;91.10;;;;;;5070096;28;20280;-70
2021/07/30 11:41:50;;;;;;;7.05;5.10;;;24.30;91.00;;;;;;5070090;28;20245;-70
2021/07/30 11:44:17;;;;;;;2.60;2.15;;;24.40;90.80;;;;;;5069866;28;20431;-69
2021/07/30 11:46:53;;;;;;;4.05;2.20;;;24.60;91.90;;;;;;5069055;28;20569;-70
2021/07/30 11:49:28;;;;;;;5.13;2.35;;;24.80;91.20;;;;;;5069831;28;20249;-69
2021/07/30 11:51:55;;;;;;;5.55;2.53;;;25.00;90.50;;;;;;5069852;28;20221;-71
2021/07/30 11:54:25;;;;;;;5.75;2.67;;;25.00;90.60;;;;;;5069610;28;20211;-71
2021/07/30 11:56:54;;;;;;;6.45;2.38;;;25.20;90.60;;;;;;5069428;28;20577;-71
2021/07/30 11:59:21;;;;;;;4.68;2.38;;;25.30;90.40;;;;;;5069608;28;20242;-71
2021/07/30 12:02:05;;;;;;;5.07;2.58;;;25.50;90.20;;;;;;5069281;28;20256;-71
2021/07/30 12:04:32;;;;;;;2.85;2.63;;;25.40;89.60;;;;;;5069471;28;20505;-71
2021/07/30 12:07:06;;;;;;;4.72;2.90;;;25.40;90.50;;;;;;5069608;28;20269;-71
2021/07/30 12:09:34;;;;;;;4.90;2.40;;;25.40;89.90;;;;;;5069175;28;20237;-71
2021/07/30 12:12:03;;;;;;;2.25;2.05;;;25.30;89.60;;;;;;5069561;28;20434;-71
2021/07/30 12:14:32;;;;;;;3.60;2.03;;;25.30;89.80;;;;;;5069451;28;20257;-71
2021/07/30 12:17:00;;;;;;;3.20;2.30;;;25.30;89.60;;;;;;5069583;28;20268;-71
2021/07/30 12:19:28;;;;;;;6.95;2.63;;;25.20;90.30;;;;;;5069163;28;20289;-71
2021/07/30 12:21:55;;;;;;;5.43;2.72;;;25.30;90.10;;;;;;5069279;28;20200;-71
2021/07/30 12:24:22;;;;;;;4.43;2.15;;;25.50;90.60;;;;;;5068975;28;20271;-71
2021/07/30 12:26:49;;;;;;;7.10;2.72;;;25.70;90.10;;;;;;5069279;28;20235;-71
2021/07/30 12:29:39;;;;;;;3.78;2.88;;;25.60;89.50;;;;;;5068868;28;20207;-71
2021/07/30 12:32:17;;;;;;;4.57;2.40;;;25.60;89.30;;;;;;5068974;28;20760;-71
2021/07/30 12:35:05;;;;;;;4.20;3.20;;;25.70;90.00;;;;;;5069050;28;20195;-71
2021/07/30 12:37:33;;;;;;;3.33;2.85;;;25.80;90.20;;;;;;5062496;28;20713;-71
2021/07/30 12:40:01;;;;;;;3.13;2.40;;;25.90;90.60;;;;;;5068756;28;20203;-71
2021/07/30 12:42:29;;;;;;;7.00;2.53;;;26.10;90.20;;;;;;5066872;28;20211;-71
2021/07/30 12:45:02;;;;;;;4.38;2.50;;;26.20;87.60;;;;;;5068187;28;20203;-71
2021/07/30 12:47:29;;;;;;;3.33;2.70;;;26.10;89.30;;;;;;5063408;28;20261;-74
2021/07/30 12:49:56;;;;;;;4.40;2.53;;;25.90;89.20;;;;;;5066005;28;20215;-74
2021/07/30 12:52:23;;;;;;;6.32;4.05;;;26.00;89.60;;;;;;5065730;28;20658;-74
2021/07/30 12:54:51;;;;;;;4.25;3.72;;;25.80;88.70;;;;;;5066119;28;20200;-71
2021/07/30 12:57:18;;;;;;;6.28;2.50;;;25.40;90.00;;;;;;5065256;28;20196;-71